M I D A S
Marine Information and Data Acquisition System
Tripno 2030 of the Zeeleeuw from 2011-01-13 07:54:20 to 2011-01-13 14:47:15
Back to CruiseResearch ActivitiesStationsMapUnderway DataData graphs

EquipmentUnitsComment
TimeDGPSUTC
LatitudeDGPSDM.mWGS84
LongitudeDGPSDM.mWGS84
TemperatureSBE03/SBE38deg celciusITS90
ConductivitySBE21S/mITS90
SalinitySBE21 Practical Salinity Units
ChlorophylAChelsea fluorimeterg/lCalibrated in Aceton
Missing or incorrect values are displayed as -999
Sea surface data collected by the RV Zeeleeuw from 2011-01-13 07:46:14 to 2011-01-13 14:51:57
Time Latitude Longitude Temperature Conductivity Salinity ChlorophylA
2011-01-13 07:47:19 51°13.661 2°55.961 4.961 2.80484 28.103776 -0.304087
2011-01-13 07:48:19 51°13.662 2°55.962 4.821 2.793681 28.335136 -0.234439
2011-01-13 07:49:19 51°13.662 2°55.963 4.7033 2.803792 28.573114 -0.199615
2011-01-13 07:50:18 51°13.662 2°55.963 4.6596 2.816324 28.844426 -0.199615
2011-01-13 07:51:20 51°13.662 2°55.962 4.61 2.827593 29.019708 -0.164791
2011-01-13 07:52:19 51°13.662 2°55.963 4.7259 2.831595 29.107143 -0.164791
2011-01-13 07:53:19 51°13.662 2°55.963 4.6873 2.744721 28.031762 -0.234439
2011-01-13 07:54:20 51°13.662 2°55.962 4.6058 2.752829 28.208202 -0.199615
2011-01-13 07:55:20 51°13.662 2°55.962 4.7764 2.745564 28.141819 -0.199615
2011-01-13 07:56:20 51°13.662 2°55.962 4.7691 2.648599 26.94428 -0.164791
2011-01-13 07:57:19 51°13.662 2°55.962 4.6835 2.640915 26.891523 -0.095143
2011-01-13 07:58:21 51°13.661 2°55.961 4.64 2.646284 26.99993 -0.129967
2011-01-13 07:59:21 51°13.678 2°55.902 4.6267 2.647863 27.059718 -0.129967
2011-01-13 08:00:20 51°13.695 2°55.798 4.6153 2.614073 26.682411 0.009329
2011-01-13 08:01:19 51°13.695 2°55.735 4.6512 2.614599 26.705234 -0.025495
2011-01-13 08:02:18 51°13.716 2°55.733 4.7184 2.60102 26.522712 -0.060319
2011-01-13 08:03:16 51°13.792 2°55.668 4.7639 2.557023 25.987019 -0.025495
2011-01-13 08:04:16 51°13.927 2°55.562 4.7512 2.356567 23.732723 -0.129967
2011-01-13 08:05:17 51°14.081 2°55.448 4.7277 2.515136 25.513879 -0.060319
2011-01-13 08:06:21 51°14.247 2°55.328 4.7342 2.642494 26.919823 -0.164791
2011-01-13 08:07:21 51°14.398 2°55.175 4.8111 2.671444 27.255109 -0.164791
2011-01-13 08:08:20 51°14.563 2°55.007 4.8994 2.521449 25.516378 -0.095143
2011-01-13 08:09:17 51°14.708 2°54.849 4.9135 2.531868 25.587845 -0.234439
2011-01-13 08:10:21 51°14.88 2°54.651 5.035 2.92796 29.983416 -0.095143
2011-01-13 08:11:19 51°15.044 2°54.458 4.9862 3.107575 31.947825 -0.060319
2011-01-13 08:12:18 51°15.207 2°54.255 4.9975 3.16479 32.636137 -0.060319
2011-01-13 08:13:17 51°15.371 2°54.055 4.9995 3.192925 32.950704 0.044153
2011-01-13 08:14:17 51°15.533 2°53.852 4.975 3.191029 32.929023 -0.025495
2011-01-13 08:15:17 51°15.693 2°53.636 4.9664 3.177857 32.799105 0.18345
2011-01-13 08:16:17 51°15.862 2°53.438 4.9837 3.171113 32.723747 0.044153
2011-01-13 08:17:17 51°16.053 2°53.281 4.9657 3.177646 32.791547 0.009329
2011-01-13 08:18:17 51°16.247 2°53.132 4.9593 3.187446 32.920798 0.009329
2011-01-13 08:19:17 51°16.44 2°52.986 4.9857 3.192188 32.976777 0.009329
2011-01-13 08:20:17 51°16.632 2°52.836 5.0103 3.201672 33.061082 0.113802
2011-01-13 08:21:18 51°16.826 2°52.678 5.0094 3.208416 33.117448 0.18345
2011-01-13 08:22:16 51°17.014 2°52.534 5.0033 3.215687 33.206693 0.18345
2011-01-13 08:23:16 51°17.218 2°52.416 5.0082 3.221062 33.262105 0.218274
2011-01-13 08:24:16 51°17.432 2°52.328 4.9906 3.221905 33.272622 0.113802
2011-01-13 08:25:17 51°17.652 2°52.254 4.9247 3.218954 33.258863 0.287922
2011-01-13 08:26:17 51°17.869 2°52.185 4.8698 3.200092 33.121008 0.253098
2011-01-13 08:27:16 51°18.09 2°52.193 4.8746 3.19672 33.11449 0.253098
2011-01-13 08:28:16 51°18.314 2°52.231 4.8657 3.197669 33.131464 0.287922
2011-01-13 08:29:17 51°18.543 2°52.26 4.8799 3.200935 33.168962 0.218274
2011-01-13 08:30:17 51°18.769 2°52.288 4.8875 3.205783 33.221125 0.218274
2011-01-13 08:31:17 51°18.997 2°52.32 4.8912 3.211579 33.277189 0.218274
2011-01-13 08:32:16 51°19.218 2°52.341 4.893 3.214951 33.312409 0.18345
2011-01-13 08:33:17 51°19.448 2°52.331 4.9031 3.219904 33.362274 0.078977
2011-01-13 08:34:16 51°19.67 2°52.323 4.8914 3.221379 33.377462 0.078977
2011-01-13 08:35:17 51°19.895 2°52.302 4.8582 3.215056 33.310121 0.18345
2011-01-13 08:36:16 51°20.114 2°52.286 4.7842 3.203359 33.220347 -0.025495
2011-01-13 08:37:17 51°20.337 2°52.255 4.7072 3.189556 33.130598 0.044153
2011-01-13 08:38:17 51°20.531 2°52.185 4.6504 3.177122 33.067724 0.113802
2011-01-13 08:39:17 51°20.692 2°52.025 4.6227 3.169325 33.030201 0.148626
2011-01-13 08:40:17 51°20.851 2°51.848 4.6295 3.168482 33.032708 0.18345
2011-01-13 08:41:17 51°21.015 2°51.674 4.6529 3.171748 33.067798 0.18345
2011-01-13 08:42:17 51°21.177 2°51.51 4.6889 3.177649 33.11228 0.148626
2011-01-13 08:43:17 51°21.342 2°51.35 4.7109 3.187027 33.188943 0.113802
2011-01-13 08:44:17 51°21.509 2°51.185 4.7775 3.195141 33.257956 0.078977
2011-01-13 08:45:17 51°21.689 2°51.055 4.8057 3.209472 33.363378 0.078977
2011-01-13 08:46:17 51°21.881 2°50.948 4.8161 3.219799 33.451508 0.009329
2011-01-13 08:47:17 51°22.069 2°50.826 4.7999 3.221696 33.468943 0.009329
2011-01-13 08:48:17 51°22.246 2°50.673 4.7706 3.211264 33.372582 -0.129967
2011-01-13 08:49:17 51°22.389 2°50.478 4.7812 3.214741 33.430241 -0.095143
2011-01-13 08:50:17 51°22.495 2°50.232 4.7998 3.21843 33.463926 -0.129967
2011-01-13 08:51:16 51°22.597 2°49.975 4.8272 3.221591 33.483593 -0.129967
2011-01-13 08:52:19 51°22.714 2°49.718 4.8532 3.227387 33.522994 -0.199615
2011-01-13 08:53:19 51°22.824 2°49.468 4.8682 3.234553 33.574583 -0.129967
2011-01-13 08:54:20 51°22.936 2°49.214 4.8918 3.236344 33.584602 -0.199615
2011-01-13 08:55:20 51°23.05 2°48.964 4.9388 3.241192 33.619166 -0.199615
2011-01-13 08:56:20 51°23.161 2°48.707 4.985 3.251625 33.684312 -0.164791
2011-01-13 08:57:20 51°23.273 2°48.453 5.0229 3.25858 33.727072 -0.234439
2011-01-13 08:58:20 51°23.38 2°48.204 5.0491 3.263954 33.747228 -0.269263
2011-01-13 08:59:18 51°23.492 2°47.953 5.0707 3.270383 33.79531 -0.269263
2011-01-13 09:00:18 51°23.604 2°47.701 5.072 3.271437 33.789729 -0.234439
2011-01-13 09:01:18 51°23.712 2°47.446 5.0848 3.272174 33.793766 -0.269263
2011-01-13 09:02:17 51°23.807 2°47.177 5.1015 3.27365 33.798309 -0.269263
2011-01-13 09:03:17 51°23.897 2°46.904 5.1359 3.279341 33.841392 -0.269263
2011-01-13 09:04:19 51°23.992 2°46.628 5.1568 3.284399 33.871023 -0.269263
2011-01-13 09:05:19 51°24.079 2°46.364 5.1766 3.287139 33.88294 -0.269263
2011-01-13 09:06:17 51°24.173 2°46.094 5.2085 3.287561 33.865711 -0.304087
2011-01-13 09:07:16 51°24.264 2°45.822 5.222 3.293884 33.908846 -0.304087
2011-01-13 09:08:18 51°24.354 2°45.535 5.2179 3.291882 33.873651 -0.338911
2011-01-13 09:09:18 51°24.403 2°45.261 5.2256 3.293252 33.891932 -0.338911
2011-01-13 09:10:20 51°24.428 2°44.973 5.232 3.294832 33.897642 -0.304087
2011-01-13 09:11:19 51°24.453 2°44.715 5.2393 3.29673 33.918411 -0.338911
2011-01-13 09:12:17 51°24.475 2°44.554 5.2523 3.297256 33.91385 -0.338911
2011-01-13 09:13:17 51°24.501 2°44.414 5.2524 3.299364 33.926444 -0.338911
2011-01-13 09:14:16 51°24.524 2°44.26 5.2458 3.300313 33.937264 -0.338911
2011-01-13 09:15:17 51°24.55 2°44.117 5.2372 3.298943 33.928684 -0.338911
2011-01-13 09:16:16 51°24.573 2°43.957 5.2247 3.298521 33.930924 -0.304087
2011-01-13 09:17:17 51°24.601 2°43.825 5.2159 3.296835 33.925784 -0.304087
2011-01-13 09:18:16 51°24.626 2°43.766 5.2082 3.296097 33.921771 -0.338911
2011-01-13 09:19:17 51°24.648 2°43.712 5.2148 3.295043 33.919438 -0.338911
2011-01-13 09:20:16 51°24.671 2°43.725 5.2123 3.296097 33.923534 -0.304087
2011-01-13 09:21:16 51°24.69 2°43.756 5.2112 3.295676 33.923131 -0.269263
2011-01-13 09:22:16 51°24.706 2°43.787 5.2168 3.294938 33.915589 -0.269263
2011-01-13 09:23:16 51°24.725 2°43.816 5.2229 3.29557 33.919282 -0.338911
2011-01-13 09:24:17 51°24.762 2°43.81 5.2261 3.295149 33.910943 -0.304087
2011-01-13 09:25:17 51°24.787 2°43.761 5.215 3.29673 33.927226 -0.304087
2011-01-13 09:26:17 51°24.764 2°43.718 5.2222 3.296203 33.926501 -0.338911
2011-01-13 09:27:16 51°24.721 2°43.677 5.2175 3.29694 33.92346 -0.304087
2011-01-13 09:28:17 51°24.698 2°43.659 5.2182 3.297467 33.930357 -0.269263
2011-01-13 09:29:16 51°24.681 2°43.653 5.2182 3.295254 33.906858 -0.269263
2011-01-13 09:30:17 51°24.664 2°43.648 5.2145 3.29694 33.926987 -0.304087
2011-01-13 09:31:17 51°24.664 2°43.667 5.2224 3.296308 33.922414 -0.304087
2011-01-13 09:32:16 51°24.673 2°43.697 5.2202 3.296624 33.91897 -0.338911
2011-01-13 09:33:17 51°24.687 2°43.726 5.2192 3.296835 33.921376 -0.304087
2011-01-13 09:34:16 51°24.702 2°43.752 5.2164 3.296203 33.920329 -0.269263
2011-01-13 09:35:16 51°24.718 2°43.778 5.2234 3.296519 33.917768 -0.304087
2011-01-13 09:36:16 51°24.732 2°43.803 5.2155 3.296624 33.921615 -0.304087
2011-01-13 09:37:17 51°24.721 2°43.838 5.2242 3.295992 33.913516 -0.269263
2011-01-13 09:38:17 51°24.687 2°43.838 5.2219 3.296624 33.916327 -0.304087
2011-01-13 09:39:16 51°24.673 2°43.796 5.2304 3.297257 33.92178 -0.304087
2011-01-13 09:40:16 51°24.642 2°43.777 5.2372 3.297257 33.92178 -0.304087
2011-01-13 09:41:16 51°24.633 2°43.75 5.2321 3.29831 33.924113 -0.304087
2011-01-13 09:42:17 51°24.654 2°43.729 5.2372 3.298416 33.932366 -0.338911
2011-01-13 09:43:16 51°24.676 2°43.723 5.234 3.298943 33.93309 -0.338911
2011-01-13 09:44:17 51°24.697 2°43.748 5.2339 3.299154 33.939903 -0.338911
2011-01-13 09:45:16 51°24.715 2°43.774 5.2356 3.298732 33.933329 -0.304087
2011-01-13 09:46:16 51°24.73 2°43.801 5.2379 3.298521 33.930924 -0.338911
2011-01-13 09:47:16 51°24.756 2°43.817 5.2408 3.298627 33.929482 -0.304087
2011-01-13 09:48:17 51°24.787 2°43.752 5.2351 3.298627 33.92772 -0.338911
2011-01-13 09:49:17 51°24.738 2°43.717 5.2602 3.298732 33.932448 -0.304087
2011-01-13 09:50:17 51°24.698 2°43.679 5.2405 3.299575 33.926206 -0.304087
2011-01-13 09:51:17 51°24.661 2°43.658 5.2412 3.298627 33.926839 -0.304087
2011-01-13 09:52:16 51°24.65 2°43.679 5.2436 3.298943 33.924278 -0.338911
2011-01-13 09:53:17 51°24.666 2°43.709 5.2435 3.300102 33.932216 -0.338911
2011-01-13 09:54:16 51°24.68 2°43.737 5.2461 3.299997 33.931014 -0.373735
2011-01-13 09:55:17 51°24.693 2°43.763 5.2467 3.300524 33.93262 -0.338911
2011-01-13 09:56:16 51°24.706 2°43.789 5.2589 3.30084 33.932702 -0.373735
2011-01-13 09:57:16 51°24.72 2°43.813 5.2543 3.301367 33.936069 -0.304087
2011-01-13 09:58:17 51°24.717 2°43.846 5.2635 3.30084 33.930941 -0.338911
2011-01-13 09:59:17 51°24.687 2°43.859 5.2484 3.301156 33.935427 -0.373735
2011-01-13 10:00:17 51°24.664 2°43.808 5.2568 3.300102 33.928693 -0.338911
2011-01-13 10:01:16 51°24.642 2°43.778 5.2579 3.30084 33.931821 -0.338911
2011-01-13 10:02:17 51°24.631 2°43.746 5.2645 3.301156 33.931023 -0.338911
2011-01-13 10:03:17 51°24.655 2°43.724 5.2556 3.302315 33.944242 -0.338911
2011-01-13 10:04:17 51°24.679 2°43.725 5.2694 3.301472 33.938151 -0.373735
2011-01-13 10:05:16 51°24.698 2°43.749 5.2689 3.301472 33.937271 -0.373735
2011-01-13 10:06:17 51°24.714 2°43.779 5.2662 3.301577 33.934949 -0.338911
2011-01-13 10:07:16 51°24.728 2°43.805 5.27 3.300313 33.92053 -0.373735
2011-01-13 10:08:16 51°24.746 2°43.83 5.2753 3.300945 33.922457 -0.373735
2011-01-13 10:09:16 51°24.761 2°43.856 5.2704 3.300734 33.919174 -0.373735
2011-01-13 10:10:16 51°24.793 2°43.869 5.2708 3.301156 33.929262 -0.373735
2011-01-13 10:11:16 51°24.887 2°43.89 5.2697 3.300734 33.924456 -0.338911
2011-01-13 10:12:16 51°25.016 2°44.018 5.2512 3.299048 33.910511 -0.338911
2011-01-13 10:13:16 51°25.168 2°44.215 5.2268 3.29831 33.910901 -0.338911
2011-01-13 10:14:16 51°25.329 2°44.452 5.2223 3.293778 33.874174 -0.338911
2011-01-13 10:15:17 51°25.494 2°44.696 5.2169 3.29146 33.855641 -0.304087
2011-01-13 10:16:16 51°25.639 2°44.945 5.2078 3.291671 33.869485 -0.304087
2011-01-13 10:17:16 51°25.799 2°45.187 5.1956 3.289141 33.853818 -0.304087
2011-01-13 10:18:17 51°25.972 2°45.412 5.2097 3.290722 33.865702 -0.338911
2011-01-13 10:19:16 51°26.134 2°45.64 5.2249 3.291987 33.873974 -0.338911
2011-01-13 10:20:16 51°26.301 2°45.869 5.2298 3.292092 33.870775 -0.304087
2011-01-13 10:21:16 51°26.467 2°46.106 5.2133 3.291881 33.865729 -0.338911
2011-01-13 10:22:16 51°26.641 2°46.326 5.1876 3.290722 33.871865 -0.338911
2011-01-13 10:23:16 51°26.838 2°46.486 5.2249 3.287666 33.852819 -0.338911
2011-01-13 10:24:16 51°27.031 2°46.654 5.1907 3.288087 33.840027 -0.304087
2011-01-13 10:25:16 51°27.221 2°46.838 5.1647 3.283345 33.813152 -0.304087
2011-01-13 10:26:16 51°27.407 2°47.027 5.0994 3.278076 33.783744 -0.304087
2011-01-13 10:27:16 51°27.605 2°47.194 5.086 3.271436 33.75183 -0.304087
2011-01-13 10:28:16 51°27.807 2°47.338 5.0781 3.269118 33.729706 -0.338911
2011-01-13 10:29:17 51°28.005 2°47.507 5.0406 3.26564 33.711026 -0.304087
2011-01-13 10:30:16 51°28.186 2°47.687 5.0503 3.259317 33.672062 -0.338911
2011-01-13 10:31:16 51°28.336 2°47.945 5.0322 3.258895 33.661077 -0.304087
2011-01-13 10:32:16 51°28.489 2°48.198 5.0117 3.257104 33.663428 -0.338911
2011-01-13 10:33:16 51°28.652 2°48.437 4.9847 3.25331 33.636668 -0.338911
2011-01-13 10:34:17 51°28.821 2°48.674 4.9683 3.248568 33.607811 -0.338911
2011-01-13 10:35:16 51°28.986 2°48.906 4.9969 3.247303 33.593308 -0.338911
2011-01-13 10:36:16 51°29.139 2°49.159 5.0029 3.251097 33.621856 -0.373735
2011-01-13 10:37:16 51°29.295 2°49.417 5.0157 3.252362 33.631955 -0.373735
2011-01-13 10:38:16 51°29.454 2°49.667 5.0253 3.254048 33.641604 -0.338911
2011-01-13 10:39:16 51°29.609 2°49.923 5.043 3.258052 33.669015 -0.338911
2011-01-13 10:40:16 51°29.777 2°50.157 5.0685 3.261109 33.689943 -0.338911
2011-01-13 10:41:16 51°29.929 2°50.412 5.0779 3.263322 33.702965 -0.338911
2011-01-13 10:42:16 51°30.079 2°50.667 5.0885 3.266589 33.719242 -0.338911
2011-01-13 10:43:16 51°30.245 2°50.905 5.0537 3.267853 33.724035 -0.338911
2011-01-13 10:44:16 51°30.414 2°51.101 5.0098 3.262057 33.691124 -0.373735
2011-01-13 10:45:16 51°30.497 2°51.253 4.9746 3.253837 33.642708 -0.338911
2011-01-13 10:46:16 51°30.555 2°51.373 4.9504 3.247093 33.599687 -0.373735
2011-01-13 10:47:16 51°30.605 2°51.456 4.9388 3.243404 33.576726 -0.373735
2011-01-13 10:48:16 51°30.624 2°51.48 4.9394 3.238451 33.539228 -0.373735
2011-01-13 10:49:16 51°30.636 2°51.502 4.9193 3.236976 33.534602 -0.338911
2011-01-13 10:50:16 51°30.648 2°51.523 4.9219 3.235606 33.524147 -0.373735
2011-01-13 10:51:16 51°30.665 2°51.544 4.9145 3.234236 33.51369 -0.338911
2011-01-13 10:52:16 51°30.682 2°51.564 4.9087 3.233604 33.509065 -0.373735
2011-01-13 10:53:16 51°30.698 2°51.583 4.9083 3.232761 33.507296 -0.338911
2011-01-13 10:54:16 51°30.716 2°51.602 4.9048 3.231707 33.500465 -0.338911
2011-01-13 10:55:16 51°30.735 2°51.62 4.8999 3.229915 33.479005 -0.338911
2011-01-13 10:56:16 51°30.755 2°51.639 4.8978 3.229599 33.478888 -0.373735
2011-01-13 10:57:16 51°30.773 2°51.658 4.892 3.228546 33.472933 -0.338911
2011-01-13 10:58:16 51°30.789 2°51.679 4.8837 3.227913 33.468304 -0.373735
2011-01-13 10:59:16 51°30.805 2°51.699 4.8864 3.227492 33.470492 -0.373735
2011-01-13 11:00:16 51°30.822 2°51.721 4.8727 3.227281 33.468069 -0.373735
2011-01-13 11:01:16 51°30.837 2°51.74 4.8726 3.226016 33.461446 -0.373735
2011-01-13 11:02:16 51°30.852 2°51.76 4.8712 3.225384 33.456815 -0.373735
2011-01-13 11:03:17 51°30.865 2°51.783 4.8658 3.224225 33.448762 -0.373735
2011-01-13 11:04:16 51°30.878 2°51.804 4.8725 3.224436 33.450307 -0.373735
2011-01-13 11:05:16 51°30.893 2°51.826 4.8725 3.223803 33.443916 -0.338911
2011-01-13 11:06:16 51°30.908 2°51.847 4.8634 3.224014 33.44546 -0.373735
2011-01-13 11:07:16 51°30.921 2°51.868 4.86 3.223066 33.43983 -0.373735
2011-01-13 11:08:16 51°30.934 2°51.891 4.8566 3.222223 33.430137 -0.373735
2011-01-13 11:09:16 51°30.947 2°51.913 4.8568 3.222223 33.435409 -0.373735
2011-01-13 11:10:16 51°30.962 2°51.935 4.8593 3.222328 33.441895 -0.408559
2011-01-13 11:11:16 51°30.977 2°51.953 4.8585 3.220642 33.419869 -0.373735
2011-01-13 11:12:16 51°30.993 2°51.97 4.8546 3.221064 33.426473 -0.373735
2011-01-13 11:13:16 51°31.01 2°51.988 4.8566 3.220221 33.420293 -0.373735
2011-01-13 11:14:16 51°31.025 2°52.005 4.8596 3.221274 33.429776 -0.408559
2011-01-13 11:15:16 51°31.041 2°52.022 4.8616 3.220747 33.416688 -0.373735
2011-01-13 11:16:16 51°31.056 2°52.04 4.8668 3.22001 33.413476 -0.338911
2011-01-13 11:17:16 51°31.07 2°52.06 4.8679 3.221169 33.421535 -0.373735
2011-01-13 11:18:16 51°31.082 2°52.08 4.8618 3.220537 33.415143 -0.373735
2011-01-13 11:19:16 51°31.094 2°52.097 4.8562 3.220326 33.416233 -0.373735
2011-01-13 11:20:16 51°31.107 2°52.118 4.8496 3.220221 33.419414 -0.338911
2011-01-13 11:21:16 51°31.119 2°52.14 4.855 3.22001 33.416112 -0.408559
2011-01-13 11:22:16 51°31.13 2°52.158 4.8521 3.219799 33.414567 -0.408559
2011-01-13 11:23:16 51°31.143 2°52.178 4.8522 3.219694 33.413355 -0.373735
2011-01-13 11:24:16 51°31.156 2°52.196 4.8496 3.219378 33.416748 -0.373735
2011-01-13 11:25:16 51°31.169 2°52.215 4.8518 3.221064 33.433505 -0.373735
2011-01-13 11:26:16 51°31.184 2°52.232 4.8504 3.219272 33.412021 -0.373735
2011-01-13 11:27:16 51°31.196 2°52.249 4.85 3.219483 33.417081 -0.373735
2011-01-13 11:28:16 51°31.207 2°52.273 4.8441 3.219061 33.412233 -0.373735
2011-01-13 11:29:16 51°31.216 2°52.297 4.8483 3.219061 33.41399 -0.338911
2011-01-13 11:30:16 51°31.226 2°52.319 4.8487 3.218745 33.410354 -0.373735
2011-01-13 11:31:16 51°31.236 2°52.339 4.8477 3.219167 33.414324 -0.373735
2011-01-13 11:32:16 51°31.248 2°52.361 4.8433 3.219061 33.41399 -0.373735
2011-01-13 11:33:16 51°31.264 2°52.376 4.8449 3.218745 33.412111 -0.373735
2011-01-13 11:34:16 51°31.29 2°52.376 4.8531 3.219061 33.414869 -0.338911
2011-01-13 11:35:16 51°31.332 2°52.359 4.851 3.219061 33.410476 -0.373735
2011-01-13 11:36:16 51°31.384 2°52.327 4.8506 3.218956 33.413657 -0.338911
2011-01-13 11:37:16 51°31.447 2°52.286 4.8537 3.219378 33.415869 -0.338911
2011-01-13 11:38:16 51°31.517 2°52.244 4.87 3.220326 33.421505 -0.338911
2011-01-13 11:39:16 51°31.589 2°52.203 4.8755 3.222855 33.438285 -0.373735
2011-01-13 11:40:16 51°31.663 2°52.162 4.8821 3.223909 33.442491 -0.373735
2011-01-13 11:41:16 51°31.731 2°52.111 4.9004 3.226122 33.46002 -0.338911
2011-01-13 11:42:16 51°31.783 2°52.084 4.9207 3.229705 33.481857 -0.338911
2011-01-13 11:43:16 51°31.797 2°52.093 4.934 3.232445 33.495752 -0.373735
2011-01-13 11:44:19 51°31.794 2°52.123 4.9399 3.234763 33.508312 -0.373735
2011-01-13 11:45:17 51°31.798 2°52.143 4.9399 3.236027 33.521953 -0.338911
2011-01-13 11:46:16 51°31.804 2°52.16 4.9375 3.236344 33.520308 -0.338911
2011-01-13 11:47:16 51°31.812 2°52.183 4.938 3.236344 33.522066 -0.338911
2011-01-13 11:48:16 51°31.822 2°52.202 4.9416 3.235711 33.513049 -0.373735
2011-01-13 11:49:16 51°31.841 2°52.198 4.9575 3.236027 33.516679 -0.373735
2011-01-13 11:50:16 51°31.859 2°52.187 4.9578 3.236976 33.517899 -0.373735
2011-01-13 11:51:16 51°31.876 2°52.175 4.9558 3.236449 33.504825 -0.408559
2011-01-13 11:52:16 51°31.893 2°52.168 4.9519 3.236238 33.502407 -0.373735
2011-01-13 11:53:16 51°31.91 2°52.148 4.9494 3.235922 33.501413 -0.373735
2011-01-13 11:54:16 51°31.925 2°52.126 4.9512 3.235395 33.496245 -0.373735
2011-01-13 11:55:16 51°31.936 2°52.104 4.9492 3.234973 33.494042 -0.373735
2011-01-13 11:56:16 51°31.936 2°52.085 4.9491 3.234447 33.491507 -0.373735
2011-01-13 11:57:16 51°31.919 2°52.096 4.9539 3.235395 33.491856 -0.373735
2011-01-13 11:58:16 51°31.889 2°52.114 4.9294 3.234446 33.481851 -0.373735
2011-01-13 11:59:16 51°31.855 2°52.099 4.9268 3.234341 33.499958 -0.373735
2011-01-13 12:00:16 51°31.82 2°52.039 4.9218 3.232655 33.48675 -0.373735
2011-01-13 12:01:16 51°31.778 2°52.039 4.9304 3.233709 33.501485 -0.373735
2011-01-13 12:02:16 51°31.765 2°52.077 4.9531 3.235711 33.511292 -0.373735
2011-01-13 12:03:16 51°31.776 2°52.089 4.9348 3.237081 33.515594 -0.373735
2011-01-13 12:04:16 51°31.785 2°52.109 4.9456 3.236765 33.514601 -0.373735
2011-01-13 12:05:16 51°31.79 2°52.128 4.941 3.237713 33.521093 -0.373735
2011-01-13 12:06:16 51°31.795 2°52.147 4.9433 3.23666 33.508122 -0.373735
2011-01-13 12:07:16 51°31.8 2°52.168 4.9491 3.237081 33.513837 -0.373735
2011-01-13 12:08:16 51°31.761 2°52.237 4.9402 3.23687 33.512297 -0.373735
2011-01-13 12:09:16 51°31.669 2°52.368 4.9363 3.235711 33.501629 -0.338911
2011-01-13 12:10:16 51°31.565 2°52.513 4.9022 3.233604 33.484465 -0.338911
2011-01-13 12:11:16 51°31.455 2°52.666 4.8853 3.228335 33.451188 -0.338911
2011-01-13 12:12:16 51°31.334 2°52.828 4.8593 3.223171 33.418206 -0.338911
2011-01-13 12:13:16 51°31.221 2°53.019 4.844 3.220115 33.407662 -0.338911
2011-01-13 12:14:16 51°31.131 2°53.238 4.8184 3.217059 33.382182 -0.304087
2011-01-13 12:15:16 51°31.035 2°53.453 4.814 3.213898 33.359867 -0.338911
2011-01-13 12:16:16 51°30.93 2°53.66 4.8082 3.212633 33.355851 -0.338911
2011-01-13 12:17:16 51°30.857 2°53.892 4.7953 3.211685 33.354594 -0.338911
2011-01-13 12:18:16 51°30.834 2°54.156 4.7849 3.20884 33.33765 -0.373735
2011-01-13 12:19:16 51°30.822 2°54.366 4.7827 3.206521 33.313596 -0.304087
2011-01-13 12:20:16 51°30.802 2°54.485 4.7717 3.205468 33.314627 -0.338911
2011-01-13 12:21:16 51°30.789 2°54.577 4.7708 3.203676 33.300141 -0.338911
2011-01-13 12:22:16 51°30.764 2°54.663 4.7725 3.20315 33.29846 -0.373735
2011-01-13 12:23:16 51°30.721 2°54.739 4.7482 3.202623 33.284497 -0.338911
2011-01-13 12:24:16 51°30.664 2°54.788 4.7083 3.195879 33.239261 -0.304087
2011-01-13 12:25:16 51°30.607 2°54.827 4.694 3.190083 33.203144 -0.338911
2011-01-13 12:26:16 51°30.556 2°54.875 4.6872 3.186395 33.175515 -0.304087
2011-01-13 12:27:16 51°30.508 2°54.932 4.6672 3.183761 33.160902 -0.338911
2011-01-13 12:28:16 51°30.459 2°54.987 4.6541 3.181548 33.148515 -0.269263
2011-01-13 12:29:16 51°30.414 2°55.054 4.6511 3.178703 33.128822 -0.269263
2011-01-13 12:30:16 51°30.369 2°55.12 4.6393 3.176701 33.110091 -0.304087
2011-01-13 12:31:16 51°30.326 2°55.181 4.628 3.174067 33.08581 -0.304087
2011-01-13 12:32:16 51°30.29 2°55.251 4.6237 3.17217 33.078793 -0.338911
2011-01-13 12:33:16 51°30.269 2°55.337 4.6089 3.172381 33.083854 -0.304087
2011-01-13 12:34:16 51°30.26 2°55.43 4.6071 3.169852 33.065151 -0.234439
2011-01-13 12:35:16 51°30.263 2°55.527 4.603 3.165848 33.034647 -0.234439
2011-01-13 12:36:16 51°30.264 2°55.625 4.584 3.164267 33.024258 -0.269263
2011-01-13 12:37:16 51°30.267 2°55.721 4.583 3.162898 33.018928 -0.234439
2011-01-13 12:38:16 51°30.281 2°55.815 4.5711 3.161106 33.002596 -0.269263
2011-01-13 12:39:16 51°30.296 2°55.907 4.5593 3.159737 32.995509 -0.269263
2011-01-13 12:40:16 51°30.311 2°56.001 4.5507 3.160685 33.011728 -0.269263
2011-01-13 12:41:16 51°30.325 2°56.098 4.5505 3.159421 33.003233 -0.269263
2011-01-13 12:42:16 51°30.338 2°56.195 4.5585 3.158472 32.99489 -0.234439
2011-01-13 12:43:16 51°30.353 2°56.292 4.5576 3.158894 32.99889 -0.304087
2011-01-13 12:44:16 51°30.369 2°56.387 4.5441 3.158894 32.996264 -0.304087
2011-01-13 12:45:16 51°30.382 2°56.484 4.5407 3.156786 32.989395 -0.234439
2011-01-13 12:46:16 51°30.396 2°56.58 4.5287 3.155522 32.980017 -0.269263
2011-01-13 12:47:16 51°30.408 2°56.678 4.5276 3.15352 32.962976 -0.269263
2011-01-13 12:48:16 51°30.422 2°56.773 4.5263 3.152466 32.953407 -0.269263
2011-01-13 12:49:16 51°30.436 2°56.869 4.5286 3.152993 32.956879 -0.304087
2011-01-13 12:50:16 51°30.451 2°56.964 4.5247 3.152256 32.952718 -0.304087
2011-01-13 12:51:16 51°30.465 2°57.06 4.5204 3.151939 32.949059 -0.338911
2011-01-13 12:52:16 51°30.479 2°57.158 4.5285 3.150886 32.938613 -0.304087
2011-01-13 12:53:16 51°30.494 2°57.255 4.5075 3.1492 32.922599 -0.338911
2011-01-13 12:54:16 51°30.509 2°57.353 4.5058 3.146987 32.908353 -0.338911
2011-01-13 12:55:16 51°30.522 2°57.45 4.4987 3.145407 32.893552 -0.304087
2011-01-13 12:56:16 51°30.523 2°57.548 4.4821 3.143089 32.874578 -0.304087
2011-01-13 12:57:16 51°30.504 2°57.637 4.475 3.140244 32.855613 -0.304087
2011-01-13 12:58:16 51°30.469 2°57.714 4.4637 3.137715 32.839425 -0.234439
2011-01-13 12:59:16 51°30.426 2°57.782 4.4591 3.136345 32.82967 -0.269263
2011-01-13 13:00:16 51°30.384 2°57.846 4.4681 3.136556 32.831238 -0.269263
2011-01-13 13:01:16 51°30.339 2°57.898 4.453 3.135924 32.818673 -0.304087
2011-01-13 13:02:16 51°30.291 2°57.942 4.4311 3.132341 32.795498 -0.269263
2011-01-13 13:03:16 51°30.24 2°57.974 4.4142 3.128338 32.769164 -0.338911
2011-01-13 13:04:16 51°30.188 2°57.998 4.4062 3.125598 32.75049 -0.304087
2011-01-13 13:05:16 51°30.136 2°58.019 4.4112 3.124123 32.740363 -0.338911
2011-01-13 13:06:16 51°30.087 2°58.036 4.412 3.125177 32.74124 -0.304087
2011-01-13 13:07:16 51°30.04 2°58.04 4.4146 3.125282 32.749442 -0.304087
2011-01-13 13:08:16 51°30.016 2°58.046 4.4251 3.126336 32.758171 -0.304087
2011-01-13 13:09:16 51°30.009 2°58.059 4.4359 3.128654 32.774575 -0.304087
2011-01-13 13:10:16 51°30.009 2°58.074 4.4421 3.130445 32.784865 -0.304087
2011-01-13 13:11:16 51°30.011 2°58.086 4.4435 3.131709 32.789917 -0.338911
2011-01-13 13:12:16 51°30.015 2°58.097 4.4473 3.131709 32.791663 -0.338911
2011-01-13 13:13:16 51°30.018 2°58.11 4.4471 3.131815 32.791138 -0.269263
2011-01-13 13:14:16 51°29.991 2°58.144 4.4555 3.13192 32.793232 -0.304087
2011-01-13 13:15:16 51°29.9 2°58.098 4.4267 3.132025 32.784852 -0.338911
2011-01-13 13:16:16 51°29.757 2°58.026 4.4164 3.126757 32.758694 -0.304087
2011-01-13 13:17:16 51°29.568 2°57.996 4.4082 3.125598 32.742637 -0.269263
2011-01-13 13:18:16 51°29.37 2°57.974 4.4191 3.12465 32.737748 -0.338911
2011-01-13 13:19:16 51°29.241 2°57.96 4.3886 3.126652 32.751364 -0.304087
2011-01-13 13:20:16 51°29.131 2°57.945 4.3515 3.116432 32.675553 -0.338911
2011-01-13 13:21:16 51°29.002 2°57.927 4.3568 3.106844 32.598239 -0.304087
2011-01-13 13:22:16 51°28.821 2°57.891 4.3103 3.103051 32.562031 -0.269263
2011-01-13 13:23:16 51°28.62 2°57.846 4.2701 3.092305 32.473716 -0.234439
2011-01-13 13:24:16 51°28.419 2°57.781 4.2515 3.086299 32.428237 -0.269263
2011-01-13 13:25:16 51°28.218 2°57.712 4.2657 3.084824 32.424978 -0.304087
2011-01-13 13:26:16 51°28.015 2°57.644 4.2644 3.08788 32.454425 -0.269263
2011-01-13 13:27:16 51°27.818 2°57.581 4.2598 3.089249 32.463398 -0.304087
2011-01-13 13:28:16 51°27.617 2°57.521 4.2335 3.082928 32.403796 -0.269263
2011-01-13 13:29:16 51°27.418 2°57.461 4.2383 3.079873 32.387353 -0.269263
2011-01-13 13:30:16 51°27.227 2°57.404 4.2388 3.079135 32.377907 -0.234439
2011-01-13 13:31:16 51°27.052 2°57.348 4.2155 3.077766 32.366313 -0.304087
2011-01-13 13:32:16 51°26.887 2°57.283 4.1925 3.072077 32.323531 -0.269263
2011-01-13 13:33:16 51°26.727 2°57.174 4.1809 3.067862 32.293546 -0.234439
2011-01-13 13:34:16 51°26.568 2°57.052 4.1849 3.065755 32.277677 -0.269263
2011-01-13 13:35:17 51°26.408 2°56.946 4.1873 3.065966 32.278398 -0.234439
2011-01-13 13:36:16 51°26.251 2°56.842 4.1821 3.066282 32.277747 -0.234439
2011-01-13 13:37:16 51°26.075 2°56.719 4.1857 3.066914 32.292039 -0.234439
2011-01-13 13:38:16 51°25.898 2°56.595 4.1933 3.067546 32.293332 -0.234439
2011-01-13 13:39:16 51°25.722 2°56.478 4.2063 3.06997 32.313742 -0.269263
2011-01-13 13:40:16 51°25.547 2°56.364 4.217 3.073236 32.340487 -0.234439
2011-01-13 13:41:16 51°25.371 2°56.247 4.1996 3.071234 32.311989 -0.269263
2011-01-13 13:42:16 51°25.191 2°56.138 4.1727 3.06723 32.288786 -0.234439
2011-01-13 13:43:16 51°25.012 2°56.027 4.1722 3.063648 32.263536 -0.269263
2011-01-13 13:44:16 51°24.835 2°55.922 4.1502 3.060804 32.238199 -0.234439
2011-01-13 13:45:16 51°24.661 2°55.822 4.1527 3.059118 32.229819 -0.234439
2011-01-13 13:46:16 51°24.481 2°55.716 4.1752 3.062384 32.264406 -0.269263
2011-01-13 13:47:16 51°24.298 2°55.607 4.2169 3.069654 32.324806 -0.234439
2011-01-13 13:48:17 51°24.118 2°55.504 4.2496 3.079346 32.400325 -0.234439
2011-01-13 13:49:16 51°23.942 2°55.402 4.2377 3.082717 32.421314 -0.234439
2011-01-13 13:50:16 51°23.76 2°55.292 4.2438 3.082507 32.421468 -0.234439
2011-01-13 13:51:16 51°23.577 2°55.183 4.2443 3.084298 32.435355 -0.234439
2011-01-13 13:52:16 51°23.391 2°55.098 4.2294 3.081664 32.40732 -0.199615
2011-01-13 13:53:16 51°23.2 2°55.024 4.2365 3.079662 32.390978 -0.234439
2011-01-13 13:54:16 51°23.012 2°54.952 4.2538 3.079978 32.392051 -0.199615
2011-01-13 13:55:16 51°22.823 2°54.878 4.2944 3.082823 32.403439 -0.199615
2011-01-13 13:56:16 51°22.635 2°54.809 4.3565 3.087774 32.423688 -0.199615
2011-01-13 13:57:16 51°22.447 2°54.741 4.4063 3.097993 32.476427 -0.199615
2011-01-13 13:58:16 51°22.259 2°54.663 4.4497 3.104947 32.517176 -0.234439
2011-01-13 13:59:16 51°22.068 2°54.589 4.4857 3.11327 32.567645 -0.234439
2011-01-13 14:00:16 51°21.879 2°54.515 4.5315 3.118327 32.594104 -0.269263
2011-01-13 14:01:16 51°21.695 2°54.425 4.6199 3.128863 32.670851 -0.269263
2011-01-13 14:02:16 51°21.513 2°54.326 4.6486 3.143614 32.756182 -0.269263
2011-01-13 14:03:16 51°21.332 2°54.228 4.6449 3.144562 32.748915 -0.269263
2011-01-13 14:04:16 51°21.148 2°54.126 4.642 3.142876 32.729479 -0.269263
2011-01-13 14:05:16 51°20.966 2°54.03 4.676 3.144352 32.748218 -0.234439
2011-01-13 14:06:16 51°20.784 2°53.93 4.7675 3.155099 32.832206 -0.234439
2011-01-13 14:07:16 51°20.604 2°53.835 4.8299 3.172485 32.943812 -0.269263
2011-01-13 14:08:16 51°20.419 2°53.731 4.8709 3.187026 33.056221 -0.269263
2011-01-13 14:09:16 51°20.234 2°53.633 4.8898 3.19651 33.12425 -0.269263
2011-01-13 14:10:16 51°20.051 2°53.533 4.9015 3.201884 33.166782 -0.304087
2011-01-13 14:11:16 51°19.87 2°53.418 4.9091 3.203781 33.177226 -0.269263
2011-01-13 14:12:16 51°19.693 2°53.312 4.9082 3.203675 33.168183 -0.304087
2011-01-13 14:13:16 51°19.515 2°53.204 4.912 3.202305 33.15421 -0.304087
2011-01-13 14:14:16 51°19.335 2°53.096 4.9177 3.201567 33.142271 -0.269263
2011-01-13 14:15:16 51°19.155 2°52.985 4.9298 3.201462 33.13237 -0.234439
2011-01-13 14:16:16 51°18.972 2°52.875 4.9402 3.201989 33.129721 -0.269263
2011-01-13 14:17:16 51°18.787 2°52.789 4.9451 3.203253 33.13379 -0.269263
2011-01-13 14:18:16 51°18.599 2°52.711 4.9361 3.203148 33.128241 -0.234439
2011-01-13 14:19:16 51°18.413 2°52.629 4.9428 3.201883 33.118092 -0.269263
2011-01-13 14:20:16 51°18.226 2°52.548 4.9693 3.202621 33.120467 -0.269263
2011-01-13 14:21:16 51°18.038 2°52.469 5.0039 3.205677 33.126832 -0.269263
2011-01-13 14:22:16 51°17.846 2°52.409 5.0313 3.210102 33.153202 -0.304087
2011-01-13 14:23:16 51°17.655 2°52.366 5.0618 3.215898 33.184803 -0.269263
2011-01-13 14:24:16 51°17.46 2°52.338 5.0894 3.222748 33.235338 -0.234439
2011-01-13 14:25:16 51°17.265 2°52.311 5.1013 3.229597 33.286685 -0.269263
2011-01-13 14:26:16 51°17.071 2°52.333 5.1274 3.233813 33.322666 -0.304087
2011-01-13 14:27:16 51°16.899 2°52.489 5.1356 3.23866 33.356286 -0.269263
2011-01-13 14:28:16 51°16.727 2°52.651 5.1336 3.236763 33.32508 -0.269263
2011-01-13 14:29:16 51°16.546 2°52.788 5.1512 3.233707 33.287607 -0.234439
2011-01-13 14:30:16 51°16.374 2°52.945 5.1468 3.234339 33.279216 -0.269263
2011-01-13 14:31:16 51°16.202 2°53.101 5.099 3.225276 33.193176 -0.269263
2011-01-13 14:32:16 51°16.031 2°53.26 5.0806 3.207467 33.028878 -0.269263
2011-01-13 14:33:16 51°15.858 2°53.415 5.0959 3.20009 32.950756 -0.234439
2011-01-13 14:34:16 51°15.695 2°53.593 5.0979 3.192924 32.861321 -0.234439
2011-01-13 14:35:16 51°15.534 2°53.779 5.1482 3.189974 32.822552 -0.164791
2011-01-13 14:36:16 51°15.377 2°53.963 5.132 3.200301 32.924816 -0.199615
2011-01-13 14:37:16 51°15.228 2°54.165 5.2042 3.217478 33.102534 -0.095143
2011-01-13 14:38:16 51°15.088 2°54.378 5.5731 0.090556 0.72253 -0.095143
2011-01-13 14:39:16 51°14.943 2°54.555 5.746 0.068911 0.542433 -0.547855
2011-01-13 14:40:16 51°14.795 2°54.722 5.9146 0.058507 0.455876 -0.547855
2011-01-13 14:41:16 51°14.649 2°54.885 6.069 0.055073 0.426816 -0.547855
2011-01-13 14:42:16 51°14.5 2°55.037 6.2131 0.053409 0.412129 -0.58268
2011-01-13 14:43:19 51°14.341 2°55.202 6.3434 0.051536 0.395815 -0.513031
2011-01-13 14:44:20 51°14.205 2°55.347 6.4492 0.049976 0.38225 -0.513031
2011-01-13 14:45:20 51°14.09 2°55.445 6.5539 0.048727 0.371117 -0.513031
2011-01-13 14:46:20 51°13.995 2°55.523 6.6186 0.047583 0.360892 -0.547855
2011-01-13 14:47:20 51°13.901 2°55.589 6.6797 0.046647 0.352291 -0.513031
2011-01-13 14:48:19 51°13.808 2°55.653 6.9101 0.045815 0.344647 -0.513031
2011-01-13 14:49:19 51°13.74 2°55.748 7.3876 0.829249 5.799854 -0.652328
2011-01-13 14:50:17 51°13.698 2°55.842 7.2453 0.196968 1.279413 -0.617504
2011-01-13 14:51:16 51°13.668 2°55.931 7.2415 0.153952 0.991709 -0.652328